Aviation Digital Data Service (ADDS)

Output produced by METARs form (1828 UTC 30 January 2015)
found at http://aviationweather.gov/adds/metars/
 
KMPV 301801Z 3018/3118 31006KT 2SM -SN BR OVC020 
     TEMPO 3018/3022 3/4SM -SN BR BKN009 
     FM310000 32012G18KT 6SM -SN BR OVC022 
     FM310600 32010G20KT P6SM OVC030 
     FM311500 34010KT P6SM SCT030